Airfield :







YOU CAN JOIN US ON...

 
LOGIN :

Register | Disclaimer

   EN    FR    IT 

 









Legend :    VFR   Marginal VFR   IFR   Intensive IFR   Very Intensive IFR
Visi :
Ceiling :
>= 8 km
>= 3000ft
5 to 8 km
1000 to 3000 ft
1500m to 5 km
500 to 1000 ft
800 to 1500m
200 to 500 ft
< 800m
< 200 ft
Symbols :   Thunderstorms  Fog  Heavy snow  Heavy precipitations  Wind > 20 kt






- Airport Elevation : 377 ft
- IATA code : YPS


CYPD - Port Hawkesbury

CURRENT METAR :
  • 060600Z AUTO 29011G18KT 9SM -RA BKN013 BKN024 OVC033 01/M01 A2955 RMK SLP013

EXPIRED METARs :
  • 060516Z AUTO 28011KT 9SM -RA OVC011 01/M00 A2953 RMK SLP006
  • 060500Z AUTO 28011KT 9SM -RA BKN006 OVC011 01/00 A2953 RMK SLP006
  • 060449Z AUTO 27010KT 9SM -RA BKN006 OVC011 01/00 A2953 RMK SLP005
  • 060444Z AUTO 28008KT 7SM -RA -UP BKN006 OVC011 01/00 A2952 RMK SLP004
  • 060433Z AUTO 28008KT 4SM -UP BR BKN006 OVC011 01/00 A2952 RMK SLP003
  • 060427Z AUTO 29008KT 4SM -RA -UP BR BKN006 OVC011 01/00 A2952 RMK SLP004
  • 060416Z AUTO 28009KT 5SM -RA BR BKN006 OVC011 01/00 A2952 RMK SLP004
  • 060327Z AUTO 30005KT 9SM -RA BKN008 OVC014 01/00 A2952 RMK SLP001
  • 060311Z AUTO 29004KT 9SM -RA BKN012 BKN026 OVC041 01/M00 A2951 RMK SLP998

TAF N/A



MET'MAP, your aeronautical weather chart ! - Copyright ORBIFLY December 2007 - Disclaimer

ORBIFLY MET'MAP TEAM :

Programming & Development : Alexandra Zaïnal
Concept & original design : Baudouin d'Aumeries
Assistance for programming : Marc-Olivier Méhu
Technical & hardware support : Manuel Goepfert

Contact : metmap@orbifly.com




SOURCES & CREDITS :

   NOAA